createdAt,value
2023-07-18T00:00:47.044Z,565.00
2023-07-18T00:01:47.121Z,563.00
2023-07-18T00:02:47.205Z,564.00
2023-07-18T00:03:47.157Z,563.00
2023-07-18T00:04:47.283Z,563.00
2023-07-18T00:05:47.228Z,564.00
2023-07-18T00:06:47.280Z,564.00
2023-07-18T00:07:47.345Z,564.00
2023-07-18T00:08:47.410Z,563.00
2023-07-18T00:09:47.472Z,565.00
2023-07-18T00:10:47.538Z,566.00
2023-07-18T00:11:47.601Z,565.00
2023-07-18T00:12:47.666Z,565.00
2023-07-18T00:13:47.676Z,566.00
2023-07-18T00:14:47.734Z,566.00
2023-07-18T00:15:47.826Z,566.00
2023-07-18T00:16:47.844Z,568.00
2023-07-18T00:17:48.665Z,568.00
2023-07-18T00:18:47.953Z,570.00
2023-07-18T00:19:48.008Z,571.00
2023-07-18T00:20:48.058Z,570.00
2023-07-18T00:21:48.087Z,569.00
2023-07-18T00:22:48.183Z,571.00
2023-07-18T00:23:48.222Z,573.00
2023-07-18T00:24:48.242Z,573.00
2023-07-18T00:25:48.303Z,571.00
2023-07-18T00:26:48.360Z,574.00
2023-07-18T00:27:48.410Z,575.00
2023-07-18T00:28:48.482Z,575.00
2023-07-18T00:29:48.525Z,574.00
2023-07-18T00:30:48.567Z,575.00
2023-07-18T00:31:48.703Z,573.00
2023-07-18T00:32:48.741Z,570.00
2023-07-18T00:33:48.763Z,567.00
2023-07-18T00:34:48.797Z,566.00
2023-07-18T00:35:48.840Z,566.00
2023-07-18T00:36:48.864Z,570.00
2023-07-18T00:37:48.960Z,571.00
2023-07-18T00:38:49.005Z,574.00
2023-07-18T00:39:49.076Z,573.00
2023-07-18T00:40:49.111Z,574.00
2023-07-18T00:41:51.550Z,574.00
2023-07-18T00:42:49.090Z,570.00
2023-07-18T00:43:49.103Z,571.00
2023-07-18T00:44:49.069Z,575.00
2023-07-18T00:45:49.156Z,576.00
2023-07-18T00:46:49.077Z,575.00
2023-07-18T00:47:49.120Z,576.00
2023-07-18T00:50:08.222Z,570.00
2023-07-18T00:51:08.193Z,573.00
2023-07-18T00:52:08.242Z,575.00
2023-07-18T00:53:08.184Z,577.00
2023-07-18T00:54:10.508Z,580.00
2023-07-18T00:55:08.290Z,581.00
2023-07-18T00:56:08.334Z,581.00
2023-07-18T00:57:08.383Z,581.00
2023-07-18T00:58:08.408Z,580.00
2023-07-18T00:59:08.459Z,581.00
2023-07-18T01:00:08.505Z,582.00
2023-07-18T01:01:08.617Z,581.00
2023-07-18T01:02:08.695Z,582.00
2023-07-18T01:03:08.747Z,580.00
2023-07-18T01:04:08.758Z,579.00
2023-07-18T01:05:08.841Z,580.00
2023-07-18T01:06:08.883Z,580.00
2023-07-18T01:07:08.993Z,580.00
2023-07-18T01:08:09.020Z,578.00
2023-07-18T01:09:09.069Z,578.00
2023-07-18T01:10:09.106Z,581.00
2023-07-18T01:11:09.184Z,583.00
2023-07-18T01:12:09.238Z,582.00
2023-07-18T01:13:09.296Z,585.00
2023-07-18T01:14:09.374Z,587.00
2023-07-18T01:15:09.419Z,586.00
2023-07-18T01:16:09.532Z,584.00
2023-07-18T01:17:09.537Z,580.00
2023-07-18T01:18:09.619Z,582.00
2023-07-18T01:19:09.683Z,581.00
2023-07-18T01:20:09.748Z,581.00
2023-07-18T01:21:09.799Z,582.00
2023-07-18T01:22:09.868Z,581.00
2023-07-18T01:23:10.106Z,581.00
2023-07-18T01:24:09.985Z,583.00
2023-07-18T01:25:10.045Z,582.00
2023-07-18T01:26:10.110Z,580.00
2023-07-18T01:27:10.155Z,579.00
2023-07-18T01:28:10.237Z,579.00
2023-07-18T01:29:10.279Z,581.00
2023-07-18T01:30:10.343Z,582.00
2023-07-18T01:31:10.415Z,581.00
2023-07-18T01:32:10.451Z,580.00
2023-07-18T01:33:10.506Z,579.00
2023-07-18T01:34:10.557Z,580.00
2023-07-18T01:35:10.623Z,580.00
2023-07-18T01:36:10.684Z,579.00
2023-07-18T01:37:10.713Z,579.00
2023-07-18T01:38:10.829Z,580.00
2023-07-18T01:39:10.846Z,579.00
2023-07-18T01:40:10.885Z,578.00
2023-07-18T01:41:10.961Z,578.00
2023-07-18T01:42:11.007Z,577.00
2023-07-18T01:43:11.055Z,574.00
2023-07-18T01:44:11.111Z,573.00
2023-07-18T01:45:11.345Z,574.00
2023-07-18T01:46:11.224Z,573.00
2023-07-18T01:47:11.337Z,573.00
2023-07-18T01:48:11.337Z,572.00
2023-07-18T01:49:11.380Z,573.00
2023-07-18T01:50:11.427Z,573.00
2023-07-18T01:51:11.488Z,576.00
2023-07-18T01:52:11.528Z,576.00
2023-07-18T01:53:11.584Z,576.00
2023-07-18T01:54:11.660Z,576.00
2023-07-18T01:55:11.732Z,576.00
2023-07-18T01:56:11.784Z,576.00
2023-07-18T01:57:11.866Z,574.00
2023-07-18T01:58:11.894Z,573.00
2023-07-18T01:59:11.955Z,573.00
2023-07-18T02:00:12.043Z,574.00
2023-07-18T02:01:12.160Z,571.00
2023-07-18T02:02:12.190Z,571.00
2023-07-18T02:03:12.302Z,570.00
2023-07-18T02:04:12.223Z,570.00
2023-07-18T02:05:12.304Z,569.00
2023-07-18T02:06:12.350Z,570.00
2023-07-18T02:07:12.400Z,570.00
2023-07-18T02:08:12.474Z,570.00
2023-07-18T02:09:12.540Z,570.00
2023-07-18T02:10:12.623Z,570.00
2023-07-18T02:11:12.642Z,571.00
2023-07-18T02:12:12.726Z,572.00
2023-07-18T02:13:12.778Z,573.00
2023-07-18T02:14:12.811Z,573.00
2023-07-18T02:15:12.904Z,570.00
2023-07-18T02:16:12.947Z,570.00
2023-07-18T02:17:13.037Z,572.00
2023-07-18T02:18:13.067Z,574.00
2023-07-18T02:19:13.094Z,576.00
2023-07-18T02:20:13.334Z,578.00
2023-07-18T02:21:13.232Z,576.00
2023-07-18T02:22:13.288Z,575.00
2023-07-18T02:23:13.472Z,574.00
2023-07-18T02:24:13.402Z,574.00
2023-07-18T02:25:13.498Z,576.00
2023-07-18T02:26:13.520Z,576.00
2023-07-18T02:27:13.608Z,578.00
2023-07-18T02:28:13.681Z,579.00
2023-07-18T02:29:13.724Z,579.00
2023-07-18T02:30:13.790Z,578.00
2023-07-18T02:31:13.874Z,577.00
2023-07-18T02:32:13.911Z,577.00
2023-07-18T02:33:13.996Z,581.00
2023-07-18T02:34:13.969Z,581.00
2023-07-18T02:35:14.000Z,581.00
2023-07-18T02:36:14.030Z,579.00
2023-07-18T02:37:14.068Z,579.00
2023-07-18T02:38:14.118Z,577.00
2023-07-18T02:39:14.153Z,578.00
2023-07-18T02:40:14.198Z,579.00
2023-07-18T02:41:14.267Z,578.00
2023-07-18T02:42:14.323Z,578.00
2023-07-18T02:43:14.418Z,575.00
2023-07-18T02:44:14.425Z,573.00
2023-07-18T02:45:14.562Z,574.00
2023-07-18T02:46:14.589Z,574.00
2023-07-18T02:47:14.625Z,573.00
2023-07-18T02:48:14.662Z,573.00
2023-07-18T02:49:14.732Z,572.00
2023-07-18T02:50:14.775Z,572.00
2023-07-18T02:51:14.854Z,572.00
2023-07-18T02:52:14.895Z,572.00
2023-07-18T02:53:14.945Z,573.00
2023-07-18T02:54:14.993Z,575.00
2023-07-18T02:55:15.042Z,574.00
2023-07-18T02:56:15.116Z,576.00
2023-07-18T02:57:15.203Z,576.00
2023-07-18T02:58:15.171Z,578.00
2023-07-18T02:59:15.252Z,579.00
2023-07-18T03:00:15.339Z,579.00
2023-07-18T03:01:15.325Z,578.00
2023-07-18T03:02:15.391Z,576.00
2023-07-18T03:03:15.504Z,577.00
2023-07-18T03:04:15.423Z,576.00
2023-07-18T03:05:15.515Z,577.00
2023-07-18T03:06:15.543Z,577.00
2023-07-18T03:07:15.577Z,577.00
2023-07-18T03:08:15.631Z,576.00
2023-07-18T03:09:15.659Z,574.00
2023-07-18T03:10:15.708Z,573.00
2023-07-18T03:11:15.894Z,573.00
2023-07-18T03:12:15.814Z,573.00
2023-07-18T03:13:15.853Z,572.00
2023-07-18T03:14:15.931Z,571.00
2023-07-18T03:15:15.966Z,568.00
2023-07-18T03:16:16.056Z,567.00
2023-07-18T03:17:16.062Z,567.00
2023-07-18T03:18:16.094Z,567.00
2023-07-18T03:19:16.175Z,569.00
2023-07-18T03:20:16.245Z,572.00
2023-07-18T03:21:16.345Z,571.00
2023-07-18T03:22:16.314Z,570.00
2023-07-18T03:23:16.354Z,569.00
2023-07-18T03:24:16.440Z,571.00
2023-07-18T03:25:16.438Z,571.00
2023-07-18T03:26:16.470Z,570.00
2023-07-18T03:27:16.501Z,565.00
2023-07-18T03:28:16.533Z,566.00
2023-07-18T03:29:16.628Z,567.00
2023-07-18T03:30:16.682Z,566.00
2023-07-18T03:31:17.030Z,568.00
2023-07-18T03:32:16.818Z,567.00
2023-07-18T03:33:16.804Z,568.00
2023-07-18T03:34:16.837Z,566.00
2023-07-18T03:35:16.885Z,565.00
2023-07-18T03:36:16.921Z,564.00
2023-07-18T03:37:16.974Z,566.00
2023-07-18T03:38:17.007Z,567.00
2023-07-18T03:39:17.064Z,566.00
2023-07-18T03:40:17.331Z,566.00
2023-07-18T03:41:17.477Z,564.00
2023-07-18T03:42:17.144Z,565.00
2023-07-18T03:43:17.207Z,565.00
2023-07-18T03:44:17.253Z,566.00
2023-07-18T03:45:17.299Z,566.00
2023-07-18T03:46:17.332Z,565.00
2023-07-18T03:47:21.308Z,565.00
2023-07-18T03:48:17.373Z,564.00
2023-07-18T03:49:17.314Z,565.00
2023-07-18T03:50:17.346Z,568.00
2023-07-18T03:51:17.535Z,569.00
2023-07-18T03:52:17.310Z,570.00
2023-07-18T03:53:17.282Z,569.00
2023-07-18T03:54:17.281Z,569.00
2023-07-18T03:55:17.267Z,573.00
2023-07-18T03:56:17.270Z,572.00
2023-07-18T03:57:17.273Z,572.00
2023-07-18T03:58:17.279Z,571.00
2023-07-18T03:59:17.263Z,572.00
2023-07-18T04:00:17.241Z,570.00
2023-07-18T04:01:17.412Z,572.00
2023-07-18T04:02:17.248Z,571.00
2023-07-18T04:03:17.242Z,574.00
2023-07-18T04:04:17.266Z,574.00
2023-07-18T04:05:17.210Z,573.00
2023-07-18T04:06:17.206Z,575.00
2023-07-18T04:07:17.193Z,576.00
2023-07-18T04:08:17.252Z,575.00
2023-07-18T04:09:17.347Z,572.00
2023-07-18T04:10:17.379Z,572.00
2023-07-18T04:11:17.644Z,569.00
2023-07-18T04:12:17.411Z,568.00
2023-07-18T04:13:17.422Z,570.00
2023-07-18T04:14:17.435Z,569.00
2023-07-18T04:15:17.466Z,568.00
2023-07-18T04:16:17.500Z,568.00
2023-07-18T04:17:17.450Z,569.00
2023-07-18T04:18:17.517Z,570.00
2023-07-18T04:19:17.536Z,571.00
2023-07-18T04:20:17.514Z,572.00
2023-07-18T04:21:17.684Z,573.00
2023-07-18T04:22:17.526Z,570.00
2023-07-18T04:23:17.634Z,569.00
2023-07-18T04:24:17.674Z,571.00
2023-07-18T04:25:17.673Z,571.00
2023-07-18T04:26:17.687Z,573.00
2023-07-18T04:27:17.763Z,574.00
2023-07-18T04:28:17.729Z,574.00
2023-07-18T04:29:17.818Z,575.00
2023-07-18T04:30:17.852Z,576.00
2023-07-18T04:31:19.960Z,575.00
2023-07-18T04:32:17.941Z,573.00
2023-07-18T04:33:18.014Z,573.00
2023-07-18T04:34:18.067Z,571.00
2023-07-18T04:35:18.132Z,570.00
2023-07-18T04:36:18.190Z,568.00
2023-07-18T04:37:18.250Z,570.00
2023-07-18T04:38:18.280Z,569.00
2023-07-18T04:39:18.279Z,572.00
2023-07-18T04:40:18.290Z,570.00
2023-07-18T04:41:18.634Z,570.00
2023-07-18T04:42:18.303Z,572.00
2023-07-18T04:43:18.275Z,573.00
2023-07-18T04:44:18.331Z,572.00
2023-07-18T04:45:18.303Z,569.00
2023-07-18T04:46:18.364Z,571.00
2023-07-18T04:47:18.330Z,569.00
2023-07-18T04:48:18.323Z,569.00
2023-07-18T04:49:18.356Z,567.00
2023-07-18T04:50:18.485Z,567.00
2023-07-18T04:51:18.750Z,565.00
2023-07-18T04:52:18.483Z,564.00
2023-07-18T04:53:18.482Z,565.00
2023-07-18T04:54:18.490Z,564.00
2023-07-18T04:55:18.518Z,564.00
2023-07-18T04:56:18.531Z,566.00
2023-07-18T04:57:18.539Z,569.00
2023-07-18T04:58:18.564Z,566.00
2023-07-18T04:59:18.677Z,565.00
2023-07-18T05:00:18.777Z,564.00
2023-07-18T05:01:26.564Z,564.00
2023-07-18T05:02:18.851Z,561.00
2023-07-18T05:03:18.932Z,560.00
2023-07-18T05:04:18.904Z,561.00
2023-07-18T05:05:18.814Z,562.00
2023-07-18T05:06:18.833Z,564.00
2023-07-18T05:07:18.790Z,566.00
2023-07-18T05:08:18.777Z,570.00
2023-07-18T05:09:18.843Z,572.00
2023-07-18T05:10:18.763Z,569.00
2023-07-18T05:11:19.092Z,569.00
2023-07-18T05:12:18.757Z,570.00
2023-07-18T05:13:18.734Z,569.00
2023-07-18T05:14:18.735Z,569.00
2023-07-18T05:15:18.718Z,569.00
2023-07-18T05:16:18.783Z,565.00
2023-07-18T05:17:18.768Z,565.00
2023-07-18T05:18:18.718Z,561.00
2023-07-18T05:19:18.708Z,562.00
2023-07-18T05:20:18.706Z,565.00
2023-07-18T05:21:18.979Z,566.00
2023-07-18T05:22:18.681Z,568.00
2023-07-18T05:23:18.698Z,567.00
2023-07-18T05:24:18.673Z,566.00
2023-07-18T05:25:18.667Z,564.00
2023-07-18T05:26:18.691Z,567.00
2023-07-18T05:27:18.653Z,567.00
2023-07-18T05:28:18.642Z,568.00
2023-07-18T05:29:18.635Z,568.00
2023-07-18T05:30:18.636Z,568.00
2023-07-18T05:31:19.067Z,570.00
2023-07-18T05:32:18.625Z,568.00
2023-07-18T05:33:18.602Z,568.00
2023-07-18T05:34:18.617Z,566.00
2023-07-18T05:35:18.611Z,565.00
2023-07-18T05:36:18.590Z,565.00
2023-07-18T05:37:18.605Z,563.00
2023-07-18T05:38:18.582Z,565.00
2023-07-18T05:39:18.569Z,567.00
2023-07-18T05:40:21.936Z,566.00
2023-07-18T05:41:18.993Z,566.00
2023-07-18T05:42:18.587Z,566.00
2023-07-18T05:43:18.577Z,568.00
2023-07-18T05:44:18.553Z,567.00
2023-07-18T05:45:18.540Z,569.00
2023-07-18T05:46:18.677Z,568.00
2023-07-18T05:47:18.528Z,568.00
2023-07-18T05:48:18.511Z,568.00
2023-07-18T05:49:18.496Z,571.00
2023-07-18T05:50:18.505Z,571.00
2023-07-18T05:51:18.829Z,569.00
2023-07-18T05:52:18.495Z,568.00
2023-07-18T05:53:18.493Z,568.00
2023-07-18T05:54:18.491Z,568.00
2023-07-18T05:55:18.513Z,566.00
2023-07-18T05:56:18.475Z,569.00
2023-07-18T05:57:18.475Z,567.00
2023-07-18T05:58:18.456Z,566.00
2023-07-18T05:59:18.460Z,568.00
2023-07-18T06:00:18.444Z,569.00
2023-07-18T06:01:18.814Z,568.00
2023-07-18T06:02:18.456Z,565.00
2023-07-18T06:03:18.472Z,565.00
2023-07-18T06:04:18.534Z,565.00
2023-07-18T06:05:18.420Z,564.00
2023-07-18T06:06:18.428Z,565.00
2023-07-18T06:07:18.414Z,563.00
2023-07-18T06:08:18.412Z,563.00
2023-07-18T06:09:18.403Z,564.00
2023-07-18T06:10:18.390Z,565.00
2023-07-18T06:11:18.596Z,563.00
2023-07-18T06:12:18.363Z,565.00
2023-07-18T06:13:18.382Z,565.00
2023-07-18T06:14:18.355Z,565.00
2023-07-18T06:15:18.345Z,567.00
2023-07-18T06:16:18.366Z,566.00
2023-07-18T06:17:18.439Z,566.00
2023-07-18T06:18:20.600Z,566.00
2023-07-18T06:19:18.343Z,565.00
2023-07-18T06:20:18.322Z,564.00
2023-07-18T06:21:18.615Z,565.00
2023-07-18T06:22:18.297Z,565.00
2023-07-18T06:23:18.409Z,565.00
2023-07-18T06:24:19.746Z,566.00
2023-07-18T06:25:18.285Z,568.00
2023-07-18T06:26:18.288Z,568.00
2023-07-18T06:27:18.288Z,568.00
2023-07-18T06:28:18.301Z,568.00
2023-07-18T06:29:18.297Z,569.00
2023-07-18T06:30:18.288Z,569.00
2023-07-18T06:31:18.513Z,567.00
2023-07-18T06:32:18.247Z,566.00
2023-07-18T06:33:18.215Z,565.00
2023-07-18T06:34:18.242Z,565.00
2023-07-18T06:35:23.705Z,564.00
2023-07-18T06:36:19.290Z,563.00
2023-07-18T06:37:18.226Z,566.00
2023-07-18T06:38:18.198Z,566.00
2023-07-18T06:39:18.407Z,567.00
2023-07-18T06:40:18.190Z,566.00
2023-07-18T06:41:18.447Z,565.00
2023-07-18T06:42:18.236Z,565.00
2023-07-18T06:43:18.161Z,564.00
2023-07-18T06:44:18.180Z,565.00
2023-07-18T06:45:18.145Z,564.00
2023-07-18T06:46:18.366Z,566.00
2023-07-18T06:47:18.290Z,567.00
2023-07-18T06:48:18.303Z,568.00
2023-07-18T06:49:18.334Z,567.00
2023-07-18T06:50:18.408Z,567.00
2023-07-18T06:51:18.729Z,567.00
2023-07-18T06:52:18.496Z,565.00
2023-07-18T06:53:18.544Z,567.00
2023-07-18T06:54:18.614Z,570.00
2023-07-18T06:55:18.663Z,572.00
2023-07-18T06:56:18.676Z,572.00
2023-07-18T06:57:18.753Z,573.00
2023-07-18T06:58:18.834Z,572.00
2023-07-18T06:59:18.867Z,570.00
2023-07-18T07:00:18.906Z,572.00
2023-07-18T07:01:19.433Z,571.00
2023-07-18T07:02:19.034Z,568.00
2023-07-18T07:03:19.266Z,569.00
2023-07-18T07:04:19.191Z,568.00
2023-07-18T07:05:19.203Z,568.00
2023-07-18T07:06:19.269Z,570.00
2023-07-18T07:07:19.370Z,569.00
2023-07-18T07:08:19.381Z,569.00
2023-07-18T07:09:19.428Z,570.00
2023-07-18T07:10:19.491Z,571.00
2023-07-18T07:11:19.777Z,572.00
2023-07-18T07:12:34.424Z,573.00
2023-07-18T07:13:20.638Z,569.00
2023-07-18T07:14:19.622Z,567.00
2023-07-18T07:15:19.620Z,567.00
2023-07-18T07:16:19.664Z,569.00
2023-07-18T07:17:19.605Z,568.00
2023-07-18T07:18:19.607Z,567.00
2023-07-18T07:19:19.585Z,568.00
2023-07-18T07:20:19.587Z,569.00
2023-07-18T07:21:19.884Z,571.00
2023-07-18T07:22:19.568Z,571.00
2023-07-18T07:23:19.634Z,571.00
2023-07-18T07:24:19.698Z,567.00
2023-07-18T07:25:19.732Z,566.00
2023-07-18T07:26:19.789Z,566.00
2023-07-18T07:27:19.863Z,566.00
2023-07-18T07:28:19.913Z,564.00
2023-07-18T07:29:19.960Z,564.00
2023-07-18T07:30:20.009Z,561.00
2023-07-18T07:31:20.505Z,560.00
2023-07-18T07:32:20.120Z,560.00
2023-07-18T07:33:20.286Z,562.00
2023-07-18T07:34:20.235Z,563.00
2023-07-18T07:35:20.252Z,562.00
2023-07-18T07:36:20.289Z,563.00
2023-07-18T07:37:20.332Z,563.00
2023-07-18T07:38:20.386Z,563.00
2023-07-18T07:39:20.413Z,561.00
2023-07-18T07:40:20.459Z,559.00
2023-07-18T07:41:20.690Z,557.00
2023-07-18T07:42:21.242Z,558.00
2023-07-18T07:43:20.571Z,556.00
2023-07-18T07:44:20.620Z,557.00
2023-07-18T07:45:20.631Z,558.00
2023-07-18T07:46:20.753Z,559.00
2023-07-18T07:47:20.758Z,557.00
2023-07-18T07:48:20.758Z,559.00
2023-07-18T07:49:20.805Z,559.00
2023-07-18T07:50:20.838Z,561.00
2023-07-18T07:51:21.173Z,562.00
2023-07-18T07:52:20.912Z,563.00
2023-07-18T07:53:20.941Z,561.00
2023-07-18T07:54:20.988Z,560.00
2023-07-18T07:55:21.019Z,560.00
2023-07-18T07:56:21.039Z,564.00
2023-07-18T07:57:21.156Z,562.00
2023-07-18T07:58:21.107Z,565.00
2023-07-18T07:59:21.149Z,563.00
2023-07-18T08:00:21.176Z,565.00
2023-07-18T08:01:21.470Z,564.00
2023-07-18T08:02:21.295Z,561.00
2023-07-18T08:03:21.233Z,562.00
2023-07-18T08:04:21.353Z,560.00
2023-07-18T08:05:21.340Z,561.00
2023-07-18T08:06:21.320Z,561.00
2023-07-18T08:07:21.348Z,561.00
2023-07-18T08:08:21.372Z,561.00
2023-07-18T08:09:21.448Z,560.00
2023-07-18T08:10:21.419Z,560.00
2023-07-18T08:11:21.774Z,559.00
2023-07-18T08:12:21.470Z,559.00
2023-07-18T08:13:22.431Z,559.00
2023-07-18T08:14:21.478Z,557.00
2023-07-18T08:15:21.509Z,559.00
2023-07-18T08:16:21.567Z,561.00
2023-07-18T08:17:21.598Z,562.00
2023-07-18T08:18:21.589Z,565.00
2023-07-18T08:19:21.611Z,565.00
2023-07-18T08:20:21.581Z,562.00
2023-07-18T08:21:21.907Z,561.00
2023-07-18T08:22:21.628Z,561.00
2023-07-18T08:23:21.645Z,565.00
2023-07-18T08:24:21.658Z,566.00
2023-07-18T08:25:21.685Z,565.00
2023-07-18T08:26:21.700Z,562.00
2023-07-18T08:27:21.711Z,563.00
2023-07-18T08:28:21.714Z,564.00
2023-07-18T08:29:21.755Z,561.00
2023-07-18T08:30:21.761Z,560.00
2023-07-18T08:31:22.066Z,560.00
2023-07-18T08:32:21.924Z,556.00
2023-07-18T08:33:21.774Z,557.00
2023-07-18T08:34:21.783Z,560.00
2023-07-18T08:35:21.811Z,559.00
2023-07-18T08:36:21.800Z,558.00
2023-07-18T08:37:21.849Z,558.00
2023-07-18T08:38:21.832Z,559.00
2023-07-18T08:39:21.863Z,559.00
2023-07-18T08:40:21.890Z,559.00
2023-07-18T08:41:22.328Z,560.00
2023-07-18T08:42:21.894Z,562.00
2023-07-18T08:43:21.898Z,562.00
2023-07-18T08:44:21.896Z,561.00
2023-07-18T08:45:21.924Z,560.00
2023-07-18T08:46:22.627Z,558.00
2023-07-18T08:47:21.961Z,557.00
2023-07-18T08:48:21.961Z,558.00
2023-07-18T08:49:21.953Z,556.00
2023-07-18T08:50:21.974Z,555.00
2023-07-18T08:51:22.177Z,555.00
2023-07-18T08:52:22.026Z,555.00
2023-07-18T08:53:22.000Z,555.00
2023-07-18T08:54:22.009Z,554.00
2023-07-18T08:55:22.062Z,556.00
2023-07-18T08:56:22.015Z,556.00
2023-07-18T08:57:22.014Z,557.00
2023-07-18T08:58:22.050Z,556.00
2023-07-18T08:59:22.051Z,557.00
2023-07-18T09:00:22.160Z,556.00
2023-07-18T09:01:22.361Z,557.00
2023-07-18T09:02:22.210Z,557.00
2023-07-18T09:03:22.150Z,557.00
2023-07-18T09:04:22.178Z,557.00
2023-07-18T09:05:22.127Z,558.00
2023-07-18T09:06:22.155Z,557.00
2023-07-18T09:07:22.152Z,558.00
2023-07-18T09:08:22.194Z,560.00
2023-07-18T09:09:22.221Z,560.00
2023-07-18T09:10:22.375Z,558.00
2023-07-18T09:11:22.708Z,556.00
2023-07-18T09:12:22.220Z,556.00
2023-07-18T09:13:22.238Z,558.00
2023-07-18T09:14:22.234Z,560.00
2023-07-18T09:15:22.281Z,560.00
2023-07-18T09:16:22.281Z,559.00
2023-07-18T09:17:22.323Z,560.00
2023-07-18T09:18:22.250Z,558.00
2023-07-18T09:19:22.233Z,556.00
2023-07-18T09:20:22.222Z,556.00
2023-07-18T09:21:22.543Z,554.00
2023-07-18T09:22:22.269Z,555.00
2023-07-18T09:23:22.241Z,555.00
2023-07-18T09:24:22.270Z,555.00
2023-07-18T09:25:22.292Z,555.00
2023-07-18T09:26:22.315Z,555.00
2023-07-18T09:27:22.299Z,556.00
2023-07-18T09:28:22.293Z,557.00
2023-07-18T09:29:22.274Z,558.00
2023-07-18T09:30:22.284Z,558.00
2023-07-18T09:31:22.734Z,558.00
2023-07-18T09:32:22.294Z,557.00
2023-07-18T09:33:22.304Z,557.00
2023-07-18T09:34:22.284Z,560.00
2023-07-18T09:35:22.308Z,560.00
2023-07-18T09:36:22.280Z,561.00
2023-07-18T09:37:22.300Z,561.00
2023-07-18T09:38:22.299Z,559.00
2023-07-18T09:39:22.298Z,558.00
2023-07-18T09:40:22.323Z,558.00
2023-07-18T09:41:22.746Z,558.00
2023-07-18T09:42:22.334Z,557.00
2023-07-18T09:43:22.304Z,555.00
2023-07-18T09:44:32.593Z,554.00
2023-07-18T09:45:23.338Z,552.00
2023-07-18T09:46:22.367Z,553.00
2023-07-18T09:47:22.451Z,554.00
2023-07-18T09:48:22.312Z,554.00
2023-07-18T09:49:24.879Z,555.00
2023-07-18T09:50:22.284Z,554.00
2023-07-18T09:51:22.813Z,555.00
2023-07-18T09:52:22.302Z,554.00
2023-07-18T09:53:22.259Z,553.00
2023-07-18T09:54:22.278Z,551.00
2023-07-18T09:55:22.255Z,551.00
2023-07-18T09:56:22.260Z,552.00
2023-07-18T09:57:22.251Z,552.00
2023-07-18T09:58:22.256Z,551.00
2023-07-18T09:59:22.268Z,551.00
2023-07-18T10:00:22.286Z,552.00
2023-07-18T10:01:22.718Z,551.00
2023-07-18T10:02:22.222Z,555.00
2023-07-18T10:03:22.333Z,554.00
2023-07-18T10:04:22.213Z,554.00
2023-07-18T10:05:22.219Z,554.00
2023-07-18T10:06:22.200Z,553.00
2023-07-18T10:07:22.208Z,553.00
2023-07-18T10:08:22.186Z,552.00
2023-07-18T10:09:22.197Z,551.00
2023-07-18T10:10:22.178Z,551.00
2023-07-18T10:11:22.420Z,553.00
2023-07-18T10:12:22.161Z,555.00
2023-07-18T10:13:23.680Z,554.00
2023-07-18T10:14:22.220Z,553.00
2023-07-18T10:15:22.155Z,551.00
2023-07-18T10:16:22.191Z,552.00
2023-07-18T10:17:22.216Z,550.00
2023-07-18T10:18:22.153Z,548.00
2023-07-18T10:19:22.121Z,547.00
2023-07-18T10:20:22.086Z,548.00
2023-07-18T10:21:22.085Z,549.00
2023-07-18T10:22:22.119Z,552.00
2023-07-18T10:23:22.087Z,553.00
2023-07-18T10:24:22.097Z,556.00
2023-07-18T10:25:22.073Z,557.00
2023-07-18T10:26:22.076Z,554.00
2023-07-18T10:27:22.043Z,554.00
2023-07-18T10:28:22.068Z,554.00
2023-07-18T10:29:22.020Z,551.00
2023-07-18T10:30:22.149Z,551.00
2023-07-18T10:31:22.409Z,550.00
2023-07-18T10:32:22.233Z,551.00
2023-07-18T10:33:22.234Z,553.00
2023-07-18T10:34:22.308Z,549.00
2023-07-18T10:35:22.301Z,550.00
2023-07-18T10:36:22.375Z,549.00
2023-07-18T10:37:22.434Z,549.00
2023-07-18T10:38:22.469Z,547.00
2023-07-18T10:39:22.492Z,547.00
2023-07-18T10:40:22.562Z,548.00
2023-07-18T10:41:22.596Z,549.00
2023-07-18T10:42:22.643Z,550.00
2023-07-18T10:43:22.701Z,551.00
2023-07-18T10:44:22.745Z,552.00
2023-07-18T10:45:22.833Z,550.00
2023-07-18T10:46:22.926Z,550.00
2023-07-18T10:47:23.057Z,551.00
2023-07-18T10:48:23.025Z,551.00
2023-07-18T10:49:23.072Z,551.00
2023-07-18T10:50:23.099Z,551.00
2023-07-18T10:51:23.183Z,552.00
2023-07-18T10:52:23.268Z,552.00
2023-07-18T10:53:23.271Z,553.00
2023-07-18T10:54:23.366Z,553.00
2023-07-18T10:55:23.406Z,551.00
2023-07-18T10:56:23.494Z,549.00
2023-07-18T10:57:23.528Z,551.00
2023-07-18T10:58:23.601Z,553.00
2023-07-18T10:59:23.648Z,554.00
2023-07-18T11:00:23.745Z,554.00
2023-07-18T11:01:24.164Z,553.00
2023-07-18T11:02:23.845Z,554.00
2023-07-18T11:03:24.036Z,556.00
2023-07-18T11:04:23.947Z,556.00
2023-07-18T11:05:24.030Z,555.00
2023-07-18T11:06:24.071Z,555.00
2023-07-18T11:07:24.140Z,552.00
2023-07-18T11:08:24.180Z,548.00
2023-07-18T11:09:24.246Z,550.00
2023-07-18T11:10:24.296Z,548.00
2023-07-18T11:11:24.372Z,547.00
2023-07-18T11:12:24.433Z,547.00
2023-07-18T11:13:24.477Z,548.00
2023-07-18T11:14:24.532Z,548.00
2023-07-18T11:15:24.614Z,549.00
2023-07-18T11:16:24.665Z,548.00
2023-07-18T11:17:24.751Z,546.00
2023-07-18T11:18:24.803Z,546.00
2023-07-18T11:19:24.846Z,548.00
2023-07-18T11:20:24.905Z,549.00
2023-07-18T11:21:25.011Z,548.00
2023-07-18T11:22:25.055Z,550.00
2023-07-18T11:23:25.092Z,549.00
2023-07-18T11:24:25.178Z,548.00
2023-07-18T11:25:25.212Z,549.00
2023-07-18T11:26:25.280Z,548.00
2023-07-18T11:27:25.343Z,549.00
2023-07-18T11:28:25.417Z,548.00
2023-07-18T11:29:25.479Z,548.00
2023-07-18T11:30:25.516Z,547.00
2023-07-18T11:32:25.597Z,545.00
2023-07-18T11:33:25.579Z,545.00
2023-07-18T11:34:25.558Z,546.00
2023-07-18T11:35:25.555Z,549.00
2023-07-18T11:36:25.561Z,551.00
2023-07-18T11:37:25.545Z,550.00
2023-07-18T11:38:25.563Z,550.00
2023-07-18T11:39:25.525Z,551.00
2023-07-18T11:40:25.533Z,553.00
2023-07-18T11:41:25.517Z,553.00
2023-07-18T11:42:25.544Z,549.00
2023-07-18T11:43:25.507Z,547.00
2023-07-18T11:44:25.588Z,544.00
2023-07-18T11:45:25.518Z,548.00
2023-07-18T11:46:25.504Z,547.00
2023-07-18T11:47:25.613Z,548.00
2023-07-18T11:48:25.612Z,546.00
2023-07-18T11:49:25.446Z,546.00
2023-07-18T11:50:28.437Z,545.00
2023-07-18T11:51:25.436Z,545.00
2023-07-18T11:52:25.457Z,547.00
2023-07-18T11:53:25.466Z,548.00
2023-07-18T11:54:25.426Z,548.00
2023-07-18T11:55:25.466Z,550.00
2023-07-18T11:56:25.444Z,549.00
2023-07-18T11:57:25.407Z,551.00
2023-07-18T11:58:25.520Z,549.00
2023-07-18T11:59:25.393Z,549.00
2023-07-18T12:00:25.382Z,548.00
2023-07-18T12:01:25.416Z,551.00
2023-07-18T12:02:25.944Z,551.00
2023-07-18T12:03:25.530Z,551.00
2023-07-18T12:04:25.390Z,552.00
2023-07-18T12:05:26.259Z,551.00
2023-07-18T12:06:25.346Z,552.00
2023-07-18T12:07:25.332Z,552.00
2023-07-18T12:08:26.100Z,550.00
2023-07-18T12:09:25.307Z,551.00
2023-07-18T12:10:26.395Z,550.00
2023-07-18T12:11:25.755Z,551.00
2023-07-18T12:12:25.496Z,551.00
2023-07-18T12:13:25.586Z,550.00
2023-07-18T12:14:25.633Z,548.00
2023-07-18T12:15:25.732Z,551.00
2023-07-18T12:16:25.799Z,553.00
2023-07-18T12:17:25.854Z,553.00
2023-07-18T12:18:25.881Z,550.00
2023-07-18T12:19:25.955Z,549.00
2023-07-18T12:20:26.003Z,548.00
2023-07-18T12:21:26.042Z,547.00
2023-07-18T12:22:26.173Z,545.00
2023-07-18T12:23:26.238Z,546.00
2023-07-18T12:24:26.257Z,543.00
2023-07-18T12:25:26.309Z,545.00
2023-07-18T12:26:26.350Z,545.00
2023-07-18T12:27:26.435Z,547.00
2023-07-18T12:28:26.466Z,548.00
2023-07-18T12:29:26.570Z,548.00
2023-07-18T12:30:26.665Z,549.00
2023-07-18T12:31:26.988Z,551.00